sensor_id;sensor_type;location;lat;lon;timestamp;P1;durP1;ratioP1;P2;durP2;ratioP2
60243;SDS011;46106;51.468;5.814;2022-08-11T00:02:30;7.40;;;4.35;;
60243;SDS011;46106;51.468;5.814;2022-08-11T00:05:04;5.68;;;3.90;;
60243;SDS011;46106;51.468;5.814;2022-08-11T00:07:35;10.10;;;4.68;;
60243;SDS011;46106;51.468;5.814;2022-08-11T00:10:09;13.57;;;4.35;;
60243;SDS011;46106;51.468;5.814;2022-08-11T00:12:40;5.33;;;3.77;;
60243;SDS011;46106;51.468;5.814;2022-08-11T00:15:07;11.23;;;4.57;;
60243;SDS011;46106;51.468;5.814;2022-08-11T00:17:34;12.85;;;4.20;;
60243;SDS011;46106;51.468;5.814;2022-08-11T00:20:02;10.75;;;4.30;;
60243;SDS011;46106;51.468;5.814;2022-08-11T00:22:33;14.15;;;4.07;;
60243;SDS011;46106;51.468;5.814;2022-08-11T00:27:39;11.02;;;4.10;;
60243;SDS011;46106;51.468;5.814;2022-08-11T00:30:06;6.40;;;3.97;;
60243;SDS011;46106;51.468;5.814;2022-08-11T00:32:35;11.75;;;4.00;;
60243;SDS011;46106;51.468;5.814;2022-08-11T00:35:02;15.32;;;4.50;;
60243;SDS011;46106;51.468;5.814;2022-08-11T00:37:31;10.35;;;4.30;;
60243;SDS011;46106;51.468;5.814;2022-08-11T00:39:58;8.45;;;4.05;;
60243;SDS011;46106;51.468;5.814;2022-08-11T00:45:19;9.27;;;4.18;;
60243;SDS011;46106;51.468;5.814;2022-08-11T00:48:24;8.73;;;4.10;;
60243;SDS011;46106;51.468;5.814;2022-08-11T00:54:01;8.02;;;3.95;;
60243;SDS011;46106;51.468;5.814;2022-08-11T01:11:06;10.80;;;4.45;;
60243;SDS011;46106;51.468;5.814;2022-08-11T01:39:53;7.60;;;4.15;;
60243;SDS011;46106;51.468;5.814;2022-08-11T01:45:49;10.45;;;4.38;;
60243;SDS011;46106;51.468;5.814;2022-08-11T01:48:38;8.38;;;5.00;;
60243;SDS011;46106;51.468;5.814;2022-08-11T01:54:20;8.77;;;4.85;;
60243;SDS011;46106;51.468;5.814;2022-08-11T01:59:53;9.75;;;5.30;;
60243;SDS011;46106;51.468;5.814;2022-08-11T02:02:44;14.88;;;4.80;;
60243;SDS011;46106;51.468;5.814;2022-08-11T02:10:36;11.85;;;4.68;;
60243;SDS011;46106;51.468;5.814;2022-08-11T02:18:45;9.52;;;4.97;;
60243;SDS011;46106;51.468;5.814;2022-08-11T02:22:10;17.58;;;5.30;;
60243;SDS011;46106;51.468;5.814;2022-08-11T02:24:52;8.73;;;5.15;;
60243;SDS011;46106;51.468;5.814;2022-08-11T02:27:26;8.27;;;4.95;;
60243;SDS011;46106;51.468;5.814;2022-08-11T02:30:10;8.93;;;4.82;;
60243;SDS011;46106;51.468;5.814;2022-08-11T02:32:44;11.15;;;4.82;;
60243;SDS011;46106;51.468;5.814;2022-08-11T02:41:15;11.45;;;5.18;;
60243;SDS011;46106;51.468;5.814;2022-08-11T02:50:00;12.20;;;5.75;;
60243;SDS011;46106;51.468;5.814;2022-08-11T03:03:59;11.95;;;5.75;;
60243;SDS011;46106;51.468;5.814;2022-08-11T03:06:35;15.85;;;5.97;;
60243;SDS011;46106;51.468;5.814;2022-08-11T03:09:16;9.05;;;5.70;;
60243;SDS011;46106;51.468;5.814;2022-08-11T03:12:03;12.02;;;6.20;;
60243;SDS011;46106;51.468;5.814;2022-08-11T03:20:43;17.00;;;6.32;;
60243;SDS011;46106;51.468;5.814;2022-08-11T03:23:28;11.73;;;6.32;;
60243;SDS011;46106;51.468;5.814;2022-08-11T03:28:33;15.17;;;6.47;;
60243;SDS011;46106;51.468;5.814;2022-08-11T03:33:50;11.80;;;6.25;;
60243;SDS011;46106;51.468;5.814;2022-08-11T03:39:28;18.05;;;6.57;;
60243;SDS011;46106;51.468;5.814;2022-08-11T03:45:04;15.30;;;6.35;;
60243;SDS011;46106;51.468;5.814;2022-08-11T03:47:47;15.00;;;6.88;;
60243;SDS011;46106;51.468;5.814;2022-08-11T03:53:22;16.00;;;7.00;;
60243;SDS011;46106;51.468;5.814;2022-08-11T04:22:58;15.80;;;6.85;;
60243;SDS011;46106;51.468;5.814;2022-08-11T04:28:41;11.70;;;6.53;;
60243;SDS011;46106;51.468;5.814;2022-08-11T04:32:14;18.83;;;6.93;;
60243;SDS011;46106;51.468;5.814;2022-08-11T04:34:43;18.02;;;7.32;;
60243;SDS011;46106;51.468;5.814;2022-08-11T04:37:46;16.85;;;7.38;;
60243;SDS011;46106;51.468;5.814;2022-08-11T04:43:38;19.15;;;7.43;;
60243;SDS011;46106;51.468;5.814;2022-08-11T04:46:25;16.45;;;8.40;;
60243;SDS011;46106;51.468;5.814;2022-08-11T05:13:45;17.83;;;8.10;;
60243;SDS011;46106;51.468;5.814;2022-08-11T05:16:53;16.00;;;8.05;;
60243;SDS011;46106;51.468;5.814;2022-08-11T05:19:38;22.63;;;9.00;;
60243;SDS011;46106;51.468;5.814;2022-08-11T05:22:28;16.52;;;8.77;;
60243;SDS011;46106;51.468;5.814;2022-08-11T05:25:28;27.52;;;9.52;;
60243;SDS011;46106;51.468;5.814;2022-08-11T05:28:19;18.10;;;8.85;;
60243;SDS011;46106;51.468;5.814;2022-08-11T05:31:13;26.20;;;9.30;;
60243;SDS011;46106;51.468;5.814;2022-08-11T05:34:07;20.65;;;9.82;;
60243;SDS011;46106;51.468;5.814;2022-08-11T05:37:04;15.60;;;9.48;;
60243;SDS011;46106;51.468;5.814;2022-08-11T05:39:38;22.33;;;9.88;;
60243;SDS011;46106;51.468;5.814;2022-08-11T05:42:30;25.52;;;10.30;;
60243;SDS011;46106;51.468;5.814;2022-08-11T05:45:16;17.20;;;9.75;;
60243;SDS011;46106;51.468;5.814;2022-08-11T05:48:02;23.45;;;9.88;;
60243;SDS011;46106;51.468;5.814;2022-08-11T05:50:51;17.13;;;9.25;;
60243;SDS011;46106;51.468;5.814;2022-08-11T05:53:49;19.77;;;9.88;;
60243;SDS011;46106;51.468;5.814;2022-08-11T05:56:41;17.75;;;10.10;;
60243;SDS011;46106;51.468;5.814;2022-08-11T05:59:14;16.92;;;9.48;;
60243;SDS011;46106;51.468;5.814;2022-08-11T06:01:42;20.35;;;10.25;;
60243;SDS011;46106;51.468;5.814;2022-08-11T06:04:11;24.42;;;9.73;;
60243;SDS011;46106;51.468;5.814;2022-08-11T06:09:30;16.23;;;9.50;;
60243;SDS011;46106;51.468;5.814;2022-08-11T06:11:59;21.42;;;9.75;;
60243;SDS011;46106;51.468;5.814;2022-08-11T06:14:31;19.27;;;10.02;;
60243;SDS011;46106;51.468;5.814;2022-08-11T06:17:02;25.27;;;10.80;;
60243;SDS011;46106;51.468;5.814;2022-08-11T06:22:03;22.45;;;11.15;;
60243;SDS011;46106;51.468;5.814;2022-08-11T06:24:30;18.80;;;10.02;;
60243;SDS011;46106;51.468;5.814;2022-08-11T06:26:57;26.33;;;11.38;;
60243;SDS011;46106;51.468;5.814;2022-08-11T06:29:24;24.48;;;11.32;;
60243;SDS011;46106;51.468;5.814;2022-08-11T06:31:53;25.00;;;11.35;;
60243;SDS011;46106;51.468;5.814;2022-08-11T06:39:51;22.35;;;10.77;;
60243;SDS011;46106;51.468;5.814;2022-08-11T06:42:35;24.15;;;10.50;;
60243;SDS011;46106;51.468;5.814;2022-08-11T06:45:14;29.60;;;10.18;;
60243;SDS011;46106;51.468;5.814;2022-08-11T06:48:17;18.27;;;8.48;;
60243;SDS011;46106;51.468;5.814;2022-08-11T06:50:47;19.58;;;9.50;;
60243;SDS011;46106;51.468;5.814;2022-08-11T06:53:33;32.03;;;9.70;;
60243;SDS011;46106;51.468;5.814;2022-08-11T06:56:00;27.00;;;9.05;;
60243;SDS011;46106;51.468;5.814;2022-08-11T06:58:46;17.75;;;9.13;;
60243;SDS011;46106;51.468;5.814;2022-08-11T07:01:38;24.88;;;9.65;;
60243;SDS011;46106;51.468;5.814;2022-08-11T07:04:12;22.60;;;9.77;;
60243;SDS011;46106;51.468;5.814;2022-08-11T07:06:49;23.45;;;9.95;;
60243;SDS011;46106;51.468;5.814;2022-08-11T07:15:37;20.67;;;9.25;;
60243;SDS011;46106;51.468;5.814;2022-08-11T07:18:07;22.38;;;9.77;;
60243;SDS011;46106;51.468;5.814;2022-08-11T07:21:04;32.60;;;10.45;;
60243;SDS011;46106;51.468;5.814;2022-08-11T07:24:34;28.65;;;10.00;;
60243;SDS011;46106;51.468;5.814;2022-08-11T07:27:31;29.45;;;9.48;;
60243;SDS011;46106;51.468;5.814;2022-08-11T07:30:23;30.05;;;8.95;;
60243;SDS011;46106;51.468;5.814;2022-08-11T07:32:50;23.17;;;9.23;;
60243;SDS011;46106;51.468;5.814;2022-08-11T07:35:52;20.23;;;9.63;;
60243;SDS011;46106;51.468;5.814;2022-08-11T07:38:15;23.58;;;9.75;;
60243;SDS011;46106;51.468;5.814;2022-08-11T07:40:45;18.42;;;8.82;;
60243;SDS011;46106;51.468;5.814;2022-08-11T07:43:11;29.80;;;10.15;;
60243;SDS011;46106;51.468;5.814;2022-08-11T07:45:45;34.70;;;9.73;;
60243;SDS011;46106;51.468;5.814;2022-08-11T07:48:33;39.70;;;10.38;;
60243;SDS011;46106;51.468;5.814;2022-08-11T07:51:18;32.67;;;10.40;;
60243;SDS011;46106;51.468;5.814;2022-08-11T07:54:03;27.23;;;9.38;;
60243;SDS011;46106;51.468;5.814;2022-08-11T07:56:33;23.58;;;9.68;;
60243;SDS011;46106;51.468;5.814;2022-08-11T07:59:01;24.85;;;9.32;;
60243;SDS011;46106;51.468;5.814;2022-08-11T08:01:46;27.45;;;8.88;;
60243;SDS011;46106;51.468;5.814;2022-08-11T08:04:31;24.60;;;8.20;;
60243;SDS011;46106;51.468;5.814;2022-08-11T08:07:18;18.05;;;8.00;;
60243;SDS011;46106;51.468;5.814;2022-08-11T08:10:04;19.23;;;7.85;;
60243;SDS011;46106;51.468;5.814;2022-08-11T08:12:50;19.38;;;6.95;;
60243;SDS011;46106;51.468;5.814;2022-08-11T08:15:36;19.60;;;7.15;;
60243;SDS011;46106;51.468;5.814;2022-08-11T08:18:21;22.95;;;7.47;;
60243;SDS011;46106;51.468;5.814;2022-08-11T08:20:48;21.17;;;8.30;;
60243;SDS011;46106;51.468;5.814;2022-08-11T08:23:14;21.70;;;7.28;;
60243;SDS011;46106;51.468;5.814;2022-08-11T08:25:42;40.22;;;7.90;;
60243;SDS011;46106;51.468;5.814;2022-08-11T08:28:15;21.20;;;8.02;;
60243;SDS011;46106;51.468;5.814;2022-08-11T08:30:43;23.33;;;6.65;;
60243;SDS011;46106;51.468;5.814;2022-08-11T08:33:20;22.98;;;6.95;;
60243;SDS011;46106;51.468;5.814;2022-08-11T08:35:57;19.98;;;6.80;;
60243;SDS011;46106;51.468;5.814;2022-08-11T08:38:49;20.58;;;6.65;;
60243;SDS011;46106;51.468;5.814;2022-08-11T08:41:22;24.83;;;6.47;;
60243;SDS011;46106;51.468;5.814;2022-08-11T08:43:52;16.30;;;6.70;;
60243;SDS011;46106;51.468;5.814;2022-08-11T08:46:30;22.17;;;7.32;;
60243;SDS011;46106;51.468;5.814;2022-08-11T08:49:00;22.92;;;7.32;;
60243;SDS011;46106;51.468;5.814;2022-08-11T08:51:27;25.30;;;7.38;;
60243;SDS011;46106;51.468;5.814;2022-08-11T08:54:02;33.22;;;6.78;;
60243;SDS011;46106;51.468;5.814;2022-08-11T08:56:30;21.83;;;7.00;;
60243;SDS011;46106;51.468;5.814;2022-08-11T08:59:00;21.90;;;6.25;;
60243;SDS011;46106;51.468;5.814;2022-08-11T09:01:28;16.75;;;5.93;;
60243;SDS011;46106;51.468;5.814;2022-08-11T09:04:08;18.80;;;6.68;;
60243;SDS011;46106;51.468;5.814;2022-08-11T09:06:36;25.85;;;7.35;;
60243;SDS011;46106;51.468;5.814;2022-08-11T09:09:07;38.00;;;6.38;;
60243;SDS011;46106;51.468;5.814;2022-08-11T09:11:34;21.17;;;5.88;;
60243;SDS011;46106;51.468;5.814;2022-08-11T09:17:10;18.85;;;5.75;;
60243;SDS011;46106;51.468;5.814;2022-08-11T09:19:37;23.92;;;5.82;;
60243;SDS011;46106;51.468;5.814;2022-08-11T09:22:03;21.83;;;6.32;;
60243;SDS011;46106;51.468;5.814;2022-08-11T09:24:53;20.48;;;5.80;;
60243;SDS011;46106;51.468;5.814;2022-08-11T09:27:38;19.80;;;5.43;;
60243;SDS011;46106;51.468;5.814;2022-08-11T09:30:07;17.33;;;5.18;;
60243;SDS011;46106;51.468;5.814;2022-08-11T09:32:36;26.33;;;6.68;;
60243;SDS011;46106;51.468;5.814;2022-08-11T09:35:03;18.35;;;5.82;;
60243;SDS011;46106;51.468;5.814;2022-08-11T09:37:29;14.15;;;5.35;;
60243;SDS011;46106;51.468;5.814;2022-08-11T09:40:15;15.43;;;4.93;;
60243;SDS011;46106;51.468;5.814;2022-08-11T09:42:53;18.73;;;5.30;;
60243;SDS011;46106;51.468;5.814;2022-08-11T09:45:39;12.52;;;5.22;;
60243;SDS011;46106;51.468;5.814;2022-08-11T09:48:10;16.25;;;5.15;;
60243;SDS011;46106;51.468;5.814;2022-08-11T09:50:36;14.27;;;5.45;;
60243;SDS011;46106;51.468;5.814;2022-08-11T09:53:04;21.35;;;5.72;;
60243;SDS011;46106;51.468;5.814;2022-08-11T09:55:31;9.85;;;4.40;;
60243;SDS011;46106;51.468;5.814;2022-08-11T09:57:57;17.65;;;5.07;;
60243;SDS011;46106;51.468;5.814;2022-08-11T10:00:44;19.23;;;4.65;;
60243;SDS011;46106;51.468;5.814;2022-08-11T10:03:14;14.25;;;4.93;;
60243;SDS011;46106;51.468;5.814;2022-08-11T10:05:43;9.32;;;4.47;;
60243;SDS011;46106;51.468;5.814;2022-08-11T10:08:30;19.65;;;4.45;;
60243;SDS011;46106;51.468;5.814;2022-08-11T10:10:57;10.20;;;4.45;;
60243;SDS011;46106;51.468;5.814;2022-08-11T10:13:29;15.02;;;4.25;;
60243;SDS011;46106;51.468;5.814;2022-08-11T10:16:21;21.30;;;4.85;;
60243;SDS011;46106;51.468;5.814;2022-08-11T10:18:50;18.95;;;4.65;;
60243;SDS011;46106;51.468;5.814;2022-08-11T10:21:23;15.02;;;4.53;;
60243;SDS011;46106;51.468;5.814;2022-08-11T10:23:53;16.40;;;4.70;;
60243;SDS011;46106;51.468;5.814;2022-08-11T10:26:38;14.00;;;4.57;;
60243;SDS011;46106;51.468;5.814;2022-08-11T10:29:15;11.88;;;4.25;;
60243;SDS011;46106;51.468;5.814;2022-08-11T10:32:00;17.42;;;4.53;;
60243;SDS011;46106;51.468;5.814;2022-08-11T10:34:46;12.75;;;4.55;;
60243;SDS011;46106;51.468;5.814;2022-08-11T10:37:13;12.18;;;4.00;;
60243;SDS011;46106;51.468;5.814;2022-08-11T10:39:40;8.50;;;3.88;;
60243;SDS011;46106;51.468;5.814;2022-08-11T10:42:09;9.15;;;3.38;;
60243;SDS011;46106;51.468;5.814;2022-08-11T10:44:55;10.57;;;3.50;;
60243;SDS011;46106;51.468;5.814;2022-08-11T10:47:22;17.42;;;3.40;;
60243;SDS011;46106;51.468;5.814;2022-08-11T10:50:17;10.90;;;3.63;;
60243;SDS011;46106;51.468;5.814;2022-08-11T10:53:01;13.00;;;4.05;;
60243;SDS011;46106;51.468;5.814;2022-08-11T10:55:46;12.90;;;3.97;;
60243;SDS011;46106;51.468;5.814;2022-08-11T10:58:31;13.85;;;3.90;;
60243;SDS011;46106;51.468;5.814;2022-08-11T11:03:40;9.32;;;3.67;;
60243;SDS011;46106;51.468;5.814;2022-08-11T11:09:07;9.50;;;3.72;;
60243;SDS011;46106;51.468;5.814;2022-08-11T11:11:42;9.00;;;3.78;;
60243;SDS011;46106;51.468;5.814;2022-08-11T11:14:30;13.18;;;4.03;;
60243;SDS011;46106;51.468;5.814;2022-08-11T11:17:50;11.13;;;3.92;;
60243;SDS011;46106;51.468;5.814;2022-08-11T11:20:22;14.38;;;3.88;;
60243;SDS011;46106;51.468;5.814;2022-08-11T11:22:52;15.20;;;4.60;;
60243;SDS011;46106;51.468;5.814;2022-08-11T11:33:37;12.13;;;3.42;;
60243;SDS011;46106;51.468;5.814;2022-08-11T11:36:08;15.68;;;3.50;;
60243;SDS011;46106;51.468;5.814;2022-08-11T11:38:41;9.80;;;3.40;;
60243;SDS011;46106;51.468;5.814;2022-08-11T11:41:10;8.57;;;3.30;;
60243;SDS011;46106;51.468;5.814;2022-08-11T11:43:55;9.63;;;3.40;;
60243;SDS011;46106;51.468;5.814;2022-08-11T11:46:25;13.15;;;4.10;;
60243;SDS011;46106;51.468;5.814;2022-08-11T11:48:54;8.15;;;2.97;;
60243;SDS011;46106;51.468;5.814;2022-08-11T11:51:23;10.02;;;3.17;;
60243;SDS011;46106;51.468;5.814;2022-08-11T11:53:51;8.95;;;3.47;;
60243;SDS011;46106;51.468;5.814;2022-08-11T11:56:18;8.85;;;3.70;;
60243;SDS011;46106;51.468;5.814;2022-08-11T11:58:48;9.68;;;3.20;;
60243;SDS011;46106;51.468;5.814;2022-08-11T12:01:32;8.57;;;3.67;;
60243;SDS011;46106;51.468;5.814;2022-08-11T12:03:59;16.83;;;3.92;;
60243;SDS011;46106;51.468;5.814;2022-08-11T12:06:25;10.57;;;3.30;;
60243;SDS011;46106;51.468;5.814;2022-08-11T12:08:53;3.53;;;3.00;;
60243;SDS011;46106;51.468;5.814;2022-08-11T12:11:22;12.10;;;3.75;;
60243;SDS011;46106;51.468;5.814;2022-08-11T12:14:08;10.05;;;3.45;;
60243;SDS011;46106;51.468;5.814;2022-08-11T12:16:36;12.18;;;4.10;;
60243;SDS011;46106;51.468;5.814;2022-08-11T12:19:10;6.05;;;3.63;;
60243;SDS011;46106;51.468;5.814;2022-08-11T12:21:39;11.05;;;3.90;;
60243;SDS011;46106;51.468;5.814;2022-08-11T12:24:24;12.98;;;3.67;;
60243;SDS011;46106;51.468;5.814;2022-08-11T12:27:09;6.28;;;3.40;;
60243;SDS011;46106;51.468;5.814;2022-08-11T12:30:04;7.88;;;3.35;;
60243;SDS011;46106;51.468;5.814;2022-08-11T12:32:31;5.43;;;3.03;;
60243;SDS011;46106;51.468;5.814;2022-08-11T12:34:59;9.43;;;3.17;;
60243;SDS011;46106;51.468;5.814;2022-08-11T12:37:34;12.15;;;3.40;;
60243;SDS011;46106;51.468;5.814;2022-08-11T12:40:06;7.18;;;3.45;;
60243;SDS011;46106;51.468;5.814;2022-08-11T12:42:56;7.45;;;3.42;;
60243;SDS011;46106;51.468;5.814;2022-08-11T12:45:44;25.05;;;3.95;;
60243;SDS011;46106;51.468;5.814;2022-08-11T12:48:20;8.93;;;3.00;;
60243;SDS011;46106;51.468;5.814;2022-08-11T12:51:06;6.53;;;3.40;;
60243;SDS011;46106;51.468;5.814;2022-08-11T12:56:27;7.90;;;3.40;;
60243;SDS011;46106;51.468;5.814;2022-08-11T12:59:18;7.75;;;3.03;;
60243;SDS011;46106;51.468;5.814;2022-08-11T13:02:04;7.38;;;3.35;;
60243;SDS011;46106;51.468;5.814;2022-08-11T13:04:48;10.48;;;3.50;;
60243;SDS011;46106;51.468;5.814;2022-08-11T13:07:24;7.35;;;3.60;;
60243;SDS011;46106;51.468;5.814;2022-08-11T13:09:52;9.20;;;3.25;;
60243;SDS011;46106;51.468;5.814;2022-08-11T13:12:21;9.88;;;3.05;;
60243;SDS011;46106;51.468;5.814;2022-08-11T13:15:08;5.72;;;3.10;;
60243;SDS011;46106;51.468;5.814;2022-08-11T13:17:37;11.27;;;3.10;;
60243;SDS011;46106;51.468;5.814;2022-08-11T13:20:04;14.15;;;3.35;;
60243;SDS011;46106;51.468;5.814;2022-08-11T13:22:34;6.70;;;3.17;;
60243;SDS011;46106;51.468;5.814;2022-08-11T13:25:02;15.25;;;3.20;;
60243;SDS011;46106;51.468;5.814;2022-08-11T13:27:28;10.73;;;3.40;;
60243;SDS011;46106;51.468;5.814;2022-08-11T13:29:54;8.13;;;3.58;;
60243;SDS011;46106;51.468;5.814;2022-08-11T13:32:41;14.60;;;3.25;;
60243;SDS011;46106;51.468;5.814;2022-08-11T13:35:09;7.32;;;3.45;;
60243;SDS011;46106;51.468;5.814;2022-08-11T13:37:39;12.25;;;3.97;;
60243;SDS011;46106;51.468;5.814;2022-08-11T13:40:09;5.35;;;3.35;;
60243;SDS011;46106;51.468;5.814;2022-08-11T13:42:37;9.10;;;3.72;;
60243;SDS011;46106;51.468;5.814;2022-08-11T13:45:04;10.48;;;3.40;;
60243;SDS011;46106;51.468;5.814;2022-08-11T13:47:31;9.85;;;3.75;;
60243;SDS011;46106;51.468;5.814;2022-08-11T13:49:59;16.48;;;3.92;;
60243;SDS011;46106;51.468;5.814;2022-08-11T13:52:25;8.77;;;3.70;;
60243;SDS011;46106;51.468;5.814;2022-08-11T13:54:52;8.30;;;4.07;;
60243;SDS011;46106;51.468;5.814;2022-08-11T13:57:19;6.85;;;3.92;;
60243;SDS011;46106;51.468;5.814;2022-08-11T13:59:46;13.30;;;3.70;;
60243;SDS011;46106;51.468;5.814;2022-08-11T14:04:49;21.15;;;3.80;;
60243;SDS011;46106;51.468;5.814;2022-08-11T14:09:47;9.43;;;3.75;;
60243;SDS011;46106;51.468;5.814;2022-08-11T14:12:22;15.43;;;4.13;;
60243;SDS011;46106;51.468;5.814;2022-08-11T14:15:15;14.00;;;4.05;;
60243;SDS011;46106;51.468;5.814;2022-08-11T14:17:50;6.28;;;3.55;;
60243;SDS011;46106;51.468;5.814;2022-08-11T14:20:22;7.88;;;3.63;;
60243;SDS011;46106;51.468;5.814;2022-08-11T14:22:48;9.38;;;3.92;;
60243;SDS011;46106;51.468;5.814;2022-08-11T14:25:16;9.80;;;3.78;;
60243;SDS011;46106;51.468;5.814;2022-08-11T14:27:44;12.20;;;3.58;;
60243;SDS011;46106;51.468;5.814;2022-08-11T14:32:59;10.63;;;3.50;;
60243;SDS011;46106;51.468;5.814;2022-08-11T14:35:26;9.18;;;3.80;;
60243;SDS011;46106;51.468;5.814;2022-08-11T14:37:52;11.07;;;3.70;;
60243;SDS011;46106;51.468;5.814;2022-08-11T14:40:21;8.85;;;3.85;;
60243;SDS011;46106;51.468;5.814;2022-08-11T14:43:06;5.22;;;3.80;;
60243;SDS011;46106;51.468;5.814;2022-08-11T14:45:51;16.08;;;3.38;;
60243;SDS011;46106;51.468;5.814;2022-08-11T14:48:38;5.20;;;3.05;;
60243;SDS011;46106;51.468;5.814;2022-08-11T14:51:06;8.73;;;2.83;;
60243;SDS011;46106;51.468;5.814;2022-08-11T14:53:32;6.28;;;2.90;;
60243;SDS011;46106;51.468;5.814;2022-08-11T14:55:58;8.57;;;3.03;;
60243;SDS011;46106;51.468;5.814;2022-08-11T14:58:43;12.90;;;3.20;;
60243;SDS011;46106;51.468;5.814;2022-08-11T15:01:09;8.10;;;3.35;;
60243;SDS011;46106;51.468;5.814;2022-08-11T15:03:54;7.50;;;3.47;;
60243;SDS011;46106;51.468;5.814;2022-08-11T15:06:23;5.68;;;2.70;;
60243;SDS011;46106;51.468;5.814;2022-08-11T15:08:49;7.03;;;2.88;;
60243;SDS011;46106;51.468;5.814;2022-08-11T15:11:22;12.23;;;2.55;;
60243;SDS011;46106;51.468;5.814;2022-08-11T15:14:09;5.20;;;2.65;;
60243;SDS011;46106;51.468;5.814;2022-08-11T15:16:36;8.15;;;2.63;;
60243;SDS011;46106;51.468;5.814;2022-08-11T15:19:24;5.60;;;2.75;;
60243;SDS011;46106;51.468;5.814;2022-08-11T15:21:52;7.20;;;2.70;;
60243;SDS011;46106;51.468;5.814;2022-08-11T15:24:36;6.15;;;2.58;;
60243;SDS011;46106;51.468;5.814;2022-08-11T15:27:10;5.63;;;2.50;;
60243;SDS011;46106;51.468;5.814;2022-08-11T15:29:58;7.45;;;2.30;;
60243;SDS011;46106;51.468;5.814;2022-08-11T15:32:45;11.90;;;2.63;;
60243;SDS011;46106;51.468;5.814;2022-08-11T15:35:30;10.50;;;2.67;;
60243;SDS011;46106;51.468;5.814;2022-08-11T15:38:18;9.02;;;2.58;;
60243;SDS011;46106;51.468;5.814;2022-08-11T15:40:46;6.38;;;2.55;;
60243;SDS011;46106;51.468;5.814;2022-08-11T15:43:39;3.60;;;2.15;;
60243;SDS011;46106;51.468;5.814;2022-08-11T15:49:07;4.13;;;1.85;;
60243;SDS011;46106;51.468;5.814;2022-08-11T15:54:08;6.13;;;2.50;;
60243;SDS011;46106;51.468;5.814;2022-08-11T15:56:40;5.97;;;2.22;;
60243;SDS011;46106;51.468;5.814;2022-08-11T15:59:12;3.90;;;2.40;;
60243;SDS011;46106;51.468;5.814;2022-08-11T16:01:59;5.47;;;2.38;;
60243;SDS011;46106;51.468;5.814;2022-08-11T16:04:44;5.82;;;2.13;;
60243;SDS011;46106;51.468;5.814;2022-08-11T16:07:14;4.70;;;2.28;;
60243;SDS011;46106;51.468;5.814;2022-08-11T16:09:50;7.53;;;2.25;;
60243;SDS011;46106;51.468;5.814;2022-08-11T16:12:20;11.73;;;2.58;;
60243;SDS011;46106;51.468;5.814;2022-08-11T16:14:50;8.65;;;2.05;;
60243;SDS011;46106;51.468;5.814;2022-08-11T16:17:39;4.95;;;2.33;;
60243;SDS011;46106;51.468;5.814;2022-08-11T16:20:08;8.77;;;2.30;;
60243;SDS011;46106;51.468;5.814;2022-08-11T16:22:36;6.45;;;2.50;;
60243;SDS011;46106;51.468;5.814;2022-08-11T16:25:05;12.43;;;2.13;;
60243;SDS011;46106;51.468;5.814;2022-08-11T16:27:35;2.72;;;2.30;;
60243;SDS011;46106;51.468;5.814;2022-08-11T16:30:04;18.13;;;2.40;;
60243;SDS011;46106;51.468;5.814;2022-08-11T16:32:31;8.38;;;2.72;;
60243;SDS011;46106;51.468;5.814;2022-08-11T16:35:02;4.53;;;2.22;;
60243;SDS011;46106;51.468;5.814;2022-08-11T16:37:50;10.00;;;2.57;;
60243;SDS011;46106;51.468;5.814;2022-08-11T16:40:36;6.50;;;2.33;;
60243;SDS011;46106;51.468;5.814;2022-08-11T16:43:04;6.05;;;2.30;;
60243;SDS011;46106;51.468;5.814;2022-08-11T16:45:50;9.55;;;2.50;;
60243;SDS011;46106;51.468;5.814;2022-08-11T16:48:36;10.35;;;2.58;;
60243;SDS011;46106;51.468;5.814;2022-08-11T16:51:05;6.45;;;2.50;;
60243;SDS011;46106;51.468;5.814;2022-08-11T16:53:32;9.85;;;2.58;;
60243;SDS011;46106;51.468;5.814;2022-08-11T16:55:59;7.85;;;2.40;;
60243;SDS011;46106;51.468;5.814;2022-08-11T16:58:28;5.07;;;2.20;;
60243;SDS011;46106;51.468;5.814;2022-08-11T17:01:14;3.20;;;1.95;;
60243;SDS011;46106;51.468;5.814;2022-08-11T17:03:45;5.32;;;2.40;;
60243;SDS011;46106;51.468;5.814;2022-08-11T17:06:34;7.03;;;2.50;;
60243;SDS011;46106;51.468;5.814;2022-08-11T17:09:24;3.28;;;2.28;;
60243;SDS011;46106;51.468;5.814;2022-08-11T17:12:13;6.30;;;2.58;;
60243;SDS011;46106;51.468;5.814;2022-08-11T17:15:00;8.65;;;2.75;;
60243;SDS011;46106;51.468;5.814;2022-08-11T17:17:50;11.60;;;2.58;;
60243;SDS011;46106;51.468;5.814;2022-08-11T17:20:18;7.85;;;2.30;;
60243;SDS011;46106;51.468;5.814;2022-08-11T17:22:44;10.10;;;2.55;;
60243;SDS011;46106;51.468;5.814;2022-08-11T17:25:29;6.93;;;2.70;;
60243;SDS011;46106;51.468;5.814;2022-08-11T17:27:56;5.10;;;2.55;;
60243;SDS011;46106;51.468;5.814;2022-08-11T17:30:24;11.70;;;2.65;;
60243;SDS011;46106;51.468;5.814;2022-08-11T17:33:12;8.85;;;2.65;;
60243;SDS011;46106;51.468;5.814;2022-08-11T17:35:57;4.60;;;2.50;;
60243;SDS011;46106;51.468;5.814;2022-08-11T17:38:24;9.15;;;2.60;;
60243;SDS011;46106;51.468;5.814;2022-08-11T17:40:52;13.55;;;2.97;;
60243;SDS011;46106;51.468;5.814;2022-08-11T17:43:38;6.47;;;2.75;;
60243;SDS011;46106;51.468;5.814;2022-08-11T17:46:23;16.15;;;2.95;;
60243;SDS011;46106;51.468;5.814;2022-08-11T17:49:10;10.05;;;2.35;;
60243;SDS011;46106;51.468;5.814;2022-08-11T17:51:37;7.55;;;2.85;;
60243;SDS011;46106;51.468;5.814;2022-08-11T17:54:25;7.88;;;2.50;;
60243;SDS011;46106;51.468;5.814;2022-08-11T17:57:13;8.57;;;2.35;;
60243;SDS011;46106;51.468;5.814;2022-08-11T17:59:59;11.10;;;2.80;;
60243;SDS011;46106;51.468;5.814;2022-08-11T18:02:30;4.28;;;2.20;;
60243;SDS011;46106;51.468;5.814;2022-08-11T18:05:21;8.25;;;2.60;;
60243;SDS011;46106;51.468;5.814;2022-08-11T18:07:49;11.55;;;2.85;;
60243;SDS011;46106;51.468;5.814;2022-08-11T18:10:36;8.60;;;2.70;;
60243;SDS011;46106;51.468;5.814;2022-08-11T18:13:25;5.40;;;3.10;;
60243;SDS011;46106;51.468;5.814;2022-08-11T18:16:11;5.35;;;2.65;;
60243;SDS011;46106;51.468;5.814;2022-08-11T18:18:56;9.25;;;3.10;;
60243;SDS011;46106;51.468;5.814;2022-08-11T18:21:41;10.13;;;2.53;;
60243;SDS011;46106;51.468;5.814;2022-08-11T18:24:29;6.00;;;2.58;;
60243;SDS011;46106;51.468;5.814;2022-08-11T18:27:16;10.15;;;2.42;;
60243;SDS011;46106;51.468;5.814;2022-08-11T18:30:03;6.20;;;2.60;;
60243;SDS011;46106;51.468;5.814;2022-08-11T18:32:48;6.00;;;2.58;;
60243;SDS011;46106;51.468;5.814;2022-08-11T18:35:36;5.88;;;2.78;;
60243;SDS011;46106;51.468;5.814;2022-08-11T18:38:21;7.63;;;2.78;;
60243;SDS011;46106;51.468;5.814;2022-08-11T18:41:08;11.25;;;3.25;;
60243;SDS011;46106;51.468;5.814;2022-08-11T18:43:54;7.00;;;2.60;;
60243;SDS011;46106;51.468;5.814;2022-08-11T18:46:42;8.38;;;2.75;;
60243;SDS011;46106;51.468;5.814;2022-08-11T18:49:30;11.25;;;3.08;;
60243;SDS011;46106;51.468;5.814;2022-08-11T18:52:19;10.70;;;2.75;;
60243;SDS011;46106;51.468;5.814;2022-08-11T18:55:07;3.92;;;2.55;;
60243;SDS011;46106;51.468;5.814;2022-08-11T18:57:54;6.10;;;2.55;;
60243;SDS011;46106;51.468;5.814;2022-08-11T19:00:40;11.75;;;2.80;;
60243;SDS011;46106;51.468;5.814;2022-08-11T19:03:25;5.18;;;2.50;;
60243;SDS011;46106;51.468;5.814;2022-08-11T19:06:11;14.60;;;2.95;;
60243;SDS011;46106;51.468;5.814;2022-08-11T19:08:58;6.55;;;2.60;;
60243;SDS011;46106;51.468;5.814;2022-08-11T19:11:44;6.38;;;2.65;;
60243;SDS011;46106;51.468;5.814;2022-08-11T19:14:29;7.43;;;3.20;;
60243;SDS011;46106;51.468;5.814;2022-08-11T19:17:15;6.65;;;2.92;;
60243;SDS011;46106;51.468;5.814;2022-08-11T19:20:01;11.18;;;3.00;;
60243;SDS011;46106;51.468;5.814;2022-08-11T19:22:47;9.30;;;3.22;;